Portada
METAR-TAF:

METAR-TAF

Aeroports :

Goiânia, Goiás, Brasil

latitud: 16-38S, longitud: 049-13W, altitud: 747 m

Observació

L'informe es va fer fa 47 minuts, a les 14:00 UTC
Vent 9 kt del Nord-Est amb ràfegues de 19 kt, variant entre Nord i Est
Temperatura 25°C
Humitat 44%
Pressió 1022 hPa
Visibilitat 10 km o més
sense núvols per sota de 1500 mi sense presència de cumulonimbus.

METAR: SBGO 211400Z 05009G19KT 010V090 CAVOK 25/12 Q1022

Hora: 11:47 (14:47 UTC)

Pronòstic

L'informe es va fer fa 4 hores i 47 minuts, a les 10:00 UTC
Pronòstic vàlid del 21 a les 12 UTC al 22 a les 12 UTC
Vent 10 kt del Est
Visibilitat 10 km o més
sense núvols per sota de 1500 mi sense presència de cumulonimbus.
Evolucionant progressivament
l' 22 a les 02 UTC al 22 a les 04 UTC
Vent 3 kt del Est/Sud-Est

TAF: SBGO 211000Z 2112/2212 09010KT CAVOK TX29/2117Z TN16/2209Z BECMG 2202/2204 12003KT RMK PFY

Observacions i pronòstics meteorològics de més de 4000 aeroports (METAR i TAF).

Les estacions disponibles són els punts grocs i vermells al mapa.

Posi el ratolí al punt desitjat per veure el nom de l'estació.

Feu clic per veure les observacions i els pronòstics meteorològics.

Per canviar el mapa: feu clic els botons verds amb una creu de color negre per apropar; al botó verd amb un guió per allunyar la imatge; o en les fletxes verdes per a mapes adjacents.


METAR-TAF: